sensor_id;sensor_type;location;lat;lon;timestamp;P1;durP1;ratioP1;P2;durP2;ratioP2
41426;SDS011;27171;51.812;19.514;2022-10-15T00:02:56;64.65;;;44.28;;
41426;SDS011;27171;51.812;19.514;2022-10-15T00:06:02;58.67;;;43.08;;
41426;SDS011;27171;51.812;19.514;2022-10-15T00:09:04;66.30;;;46.85;;
41426;SDS011;27171;51.812;19.514;2022-10-15T00:12:05;64.82;;;45.60;;
41426;SDS011;27171;51.812;19.514;2022-10-15T00:15:06;62.60;;;44.33;;
41426;SDS011;27171;51.812;19.514;2022-10-15T00:18:08;59.95;;;45.30;;
41426;SDS011;27171;51.812;19.514;2022-10-15T00:21:10;63.65;;;45.83;;
41426;SDS011;27171;51.812;19.514;2022-10-15T00:24:12;62.78;;;45.42;;
41426;SDS011;27171;51.812;19.514;2022-10-15T00:27:14;62.25;;;43.47;;
41426;SDS011;27171;51.812;19.514;2022-10-15T00:30:15;64.82;;;46.38;;
41426;SDS011;27171;51.812;19.514;2022-10-15T00:33:17;65.97;;;47.15;;
41426;SDS011;27171;51.812;19.514;2022-10-15T00:36:22;67.85;;;47.90;;
41426;SDS011;27171;51.812;19.514;2022-10-15T00:39:24;69.68;;;48.83;;
41426;SDS011;27171;51.812;19.514;2022-10-15T00:42:26;67.13;;;46.40;;
41426;SDS011;27171;51.812;19.514;2022-10-15T00:45:27;67.88;;;45.95;;
41426;SDS011;27171;51.812;19.514;2022-10-15T00:48:28;63.47;;;44.92;;
41426;SDS011;27171;51.812;19.514;2022-10-15T00:51:32;63.28;;;41.72;;
41426;SDS011;27171;51.812;19.514;2022-10-15T00:54:39;66.68;;;47.35;;
41426;SDS011;27171;51.812;19.514;2022-10-15T00:57:46;63.67;;;46.72;;
41426;SDS011;27171;51.812;19.514;2022-10-15T01:00:49;68.07;;;45.53;;
41426;SDS011;27171;51.812;19.514;2022-10-15T01:03:52;67.30;;;47.47;;
41426;SDS011;27171;51.812;19.514;2022-10-15T01:06:55;70.25;;;48.45;;
41426;SDS011;27171;51.812;19.514;2022-10-15T01:09:56;64.28;;;44.03;;
41426;SDS011;27171;51.812;19.514;2022-10-15T01:36:31;58.53;;;41.35;;
41426;SDS011;27171;51.812;19.514;2022-10-15T01:39:40;69.38;;;47.03;;
41426;SDS011;27171;51.812;19.514;2022-10-15T01:42:59;69.97;;;45.63;;
41426;SDS011;27171;51.812;19.514;2022-10-15T01:46:17;71.10;;;48.72;;
41426;SDS011;27171;51.812;19.514;2022-10-15T01:49:42;61.78;;;43.83;;
41426;SDS011;27171;51.812;19.514;2022-10-15T01:52:45;59.97;;;42.95;;
41426;SDS011;27171;51.812;19.514;2022-10-15T01:55:49;59.95;;;42.40;;
41426;SDS011;27171;51.812;19.514;2022-10-15T01:58:54;62.30;;;42.53;;
41426;SDS011;27171;51.812;19.514;2022-10-15T02:01:56;60.53;;;43.33;;
41426;SDS011;27171;51.812;19.514;2022-10-15T02:04:57;55.72;;;40.70;;
41426;SDS011;27171;51.812;19.514;2022-10-15T02:08:06;64.00;;;46.13;;
41426;SDS011;27171;51.812;19.514;2022-10-15T02:11:14;59.17;;;43.25;;
41426;SDS011;27171;51.812;19.514;2022-10-15T02:14:18;63.63;;;43.40;;
41426;SDS011;27171;51.812;19.514;2022-10-15T02:21:07;63.70;;;42.75;;
41426;SDS011;27171;51.812;19.514;2022-10-15T02:24:11;60.28;;;43.60;;
41426;SDS011;27171;51.812;19.514;2022-10-15T02:27:20;59.27;;;43.53;;
41426;SDS011;27171;51.812;19.514;2022-10-15T02:30:21;57.13;;;42.33;;
41426;SDS011;27171;51.812;19.514;2022-10-15T02:33:23;53.92;;;42.13;;
41426;SDS011;27171;51.812;19.514;2022-10-15T02:36:26;64.28;;;43.40;;
41426;SDS011;27171;51.812;19.514;2022-10-15T02:39:28;59.17;;;42.67;;
41426;SDS011;27171;51.812;19.514;2022-10-15T02:42:32;61.42;;;43.53;;
41426;SDS011;27171;51.812;19.514;2022-10-15T02:45:34;65.40;;;46.40;;
41426;SDS011;27171;51.812;19.514;2022-10-15T02:48:37;60.20;;;41.72;;
41426;SDS011;27171;51.812;19.514;2022-10-15T02:51:38;65.53;;;45.17;;
41426;SDS011;27171;51.812;19.514;2022-10-15T02:54:39;56.50;;;44.50;;
41426;SDS011;27171;51.812;19.514;2022-10-15T02:57:40;57.88;;;43.90;;
41426;SDS011;27171;51.812;19.514;2022-10-15T03:00:42;53.63;;;41.78;;
41426;SDS011;27171;51.812;19.514;2022-10-15T03:03:44;63.28;;;45.55;;
41426;SDS011;27171;51.812;19.514;2022-10-15T03:06:45;56.17;;;40.88;;
41426;SDS011;27171;51.812;19.514;2022-10-15T03:09:47;59.75;;;42.90;;
41426;SDS011;27171;51.812;19.514;2022-10-15T03:12:50;64.30;;;44.40;;
41426;SDS011;27171;51.812;19.514;2022-10-15T03:15:51;62.28;;;43.85;;
41426;SDS011;27171;51.812;19.514;2022-10-15T03:18:55;57.25;;;41.50;;
41426;SDS011;27171;51.812;19.514;2022-10-15T03:21:57;55.55;;;41.05;;
41426;SDS011;27171;51.812;19.514;2022-10-15T03:25:04;57.47;;;41.47;;
41426;SDS011;27171;51.812;19.514;2022-10-15T03:28:05;51.40;;;38.72;;
41426;SDS011;27171;51.812;19.514;2022-10-15T03:31:13;55.45;;;41.10;;
41426;SDS011;27171;51.812;19.514;2022-10-15T03:34:18;52.85;;;39.35;;
41426;SDS011;27171;51.812;19.514;2022-10-15T03:37:20;54.63;;;39.92;;
41426;SDS011;27171;51.812;19.514;2022-10-15T03:40:22;55.45;;;41.10;;
41426;SDS011;27171;51.812;19.514;2022-10-15T03:43:26;60.55;;;41.25;;
41426;SDS011;27171;51.812;19.514;2022-10-15T03:46:28;54.03;;;39.45;;
41426;SDS011;27171;51.812;19.514;2022-10-15T03:49:29;57.75;;;40.00;;
41426;SDS011;27171;51.812;19.514;2022-10-15T03:52:30;53.72;;;40.35;;
41426;SDS011;27171;51.812;19.514;2022-10-15T03:55:33;59.53;;;42.35;;
41426;SDS011;27171;51.812;19.514;2022-10-15T03:58:35;57.13;;;41.90;;
41426;SDS011;27171;51.812;19.514;2022-10-15T04:01:39;54.88;;;41.25;;
41426;SDS011;27171;51.812;19.514;2022-10-15T04:04:40;55.17;;;40.40;;
41426;SDS011;27171;51.812;19.514;2022-10-15T04:07:42;55.67;;;38.92;;
41426;SDS011;27171;51.812;19.514;2022-10-15T04:10:49;53.00;;;38.45;;
41426;SDS011;27171;51.812;19.514;2022-10-15T04:13:51;55.90;;;39.80;;
41426;SDS011;27171;51.812;19.514;2022-10-15T04:16:52;55.92;;;39.35;;
41426;SDS011;27171;51.812;19.514;2022-10-15T04:19:58;55.03;;;39.72;;
41426;SDS011;27171;51.812;19.514;2022-10-15T04:22:59;58.78;;;40.58;;
41426;SDS011;27171;51.812;19.514;2022-10-15T04:26:03;57.88;;;39.17;;
41426;SDS011;27171;51.812;19.514;2022-10-15T04:29:04;54.25;;;40.65;;
41426;SDS011;27171;51.812;19.514;2022-10-15T04:32:05;57.72;;;40.55;;
41426;SDS011;27171;51.812;19.514;2022-10-15T04:35:07;60.15;;;41.08;;
41426;SDS011;27171;51.812;19.514;2022-10-15T04:38:22;58.65;;;38.75;;
41426;SDS011;27171;51.812;19.514;2022-10-15T04:41:33;61.60;;;41.60;;
41426;SDS011;27171;51.812;19.514;2022-10-15T04:44:41;54.17;;;39.60;;
41426;SDS011;27171;51.812;19.514;2022-10-15T04:47:43;61.15;;;40.85;;
41426;SDS011;27171;51.812;19.514;2022-10-15T04:50:49;53.47;;;38.13;;
41426;SDS011;27171;51.812;19.514;2022-10-15T04:53:53;59.42;;;41.67;;
41426;SDS011;27171;51.812;19.514;2022-10-15T04:56:54;52.25;;;37.67;;
41426;SDS011;27171;51.812;19.514;2022-10-15T04:59:56;53.00;;;37.15;;
41426;SDS011;27171;51.812;19.514;2022-10-15T05:03:06;59.50;;;40.72;;
41426;SDS011;27171;51.812;19.514;2022-10-15T05:06:23;55.90;;;40.25;;
41426;SDS011;27171;51.812;19.514;2022-10-15T05:09:29;53.85;;;38.65;;
41426;SDS011;27171;51.812;19.514;2022-10-15T05:12:32;55.80;;;40.80;;
41426;SDS011;27171;51.812;19.514;2022-10-15T05:15:33;55.03;;;39.60;;
41426;SDS011;27171;51.812;19.514;2022-10-15T05:18:37;53.58;;;38.88;;
41426;SDS011;27171;51.812;19.514;2022-10-15T05:21:39;58.25;;;40.58;;
41426;SDS011;27171;51.812;19.514;2022-10-15T05:24:47;54.13;;;39.30;;
41426;SDS011;27171;51.812;19.514;2022-10-15T05:28:03;55.60;;;40.15;;
41426;SDS011;27171;51.812;19.514;2022-10-15T05:31:09;56.55;;;39.13;;
41426;SDS011;27171;51.812;19.514;2022-10-15T05:34:12;50.15;;;38.38;;
41426;SDS011;27171;51.812;19.514;2022-10-15T05:37:25;53.17;;;39.55;;
41426;SDS011;27171;51.812;19.514;2022-10-15T05:40:27;51.83;;;39.95;;
41426;SDS011;27171;51.812;19.514;2022-10-15T05:43:42;53.05;;;37.67;;
41426;SDS011;27171;51.812;19.514;2022-10-15T05:46:56;55.03;;;37.20;;
41426;SDS011;27171;51.812;19.514;2022-10-15T05:49:57;48.83;;;37.55;;
41426;SDS011;27171;51.812;19.514;2022-10-15T05:53:03;52.85;;;36.65;;
41426;SDS011;27171;51.812;19.514;2022-10-15T05:56:17;53.53;;;38.05;;
41426;SDS011;27171;51.812;19.514;2022-10-15T05:59:19;47.95;;;34.97;;
41426;SDS011;27171;51.812;19.514;2022-10-15T06:02:20;50.78;;;38.97;;
41426;SDS011;27171;51.812;19.514;2022-10-15T06:05:22;51.42;;;38.15;;
41426;SDS011;27171;51.812;19.514;2022-10-15T06:08:23;52.10;;;39.05;;
41426;SDS011;27171;51.812;19.514;2022-10-15T06:11:25;50.47;;;38.83;;
41426;SDS011;27171;51.812;19.514;2022-10-15T06:14:26;50.22;;;36.50;;
41426;SDS011;27171;51.812;19.514;2022-10-15T06:17:27;54.58;;;40.80;;
41426;SDS011;27171;51.812;19.514;2022-10-15T06:20:28;49.45;;;36.78;;
41426;SDS011;27171;51.812;19.514;2022-10-15T06:23:29;48.40;;;38.33;;
41426;SDS011;27171;51.812;19.514;2022-10-15T06:26:31;46.63;;;36.38;;
41426;SDS011;27171;51.812;19.514;2022-10-15T06:29:32;45.72;;;34.75;;
41426;SDS011;27171;51.812;19.514;2022-10-15T06:32:35;47.38;;;36.55;;
41426;SDS011;27171;51.812;19.514;2022-10-15T06:35:36;45.22;;;34.90;;
41426;SDS011;27171;51.812;19.514;2022-10-15T06:38:37;49.13;;;36.80;;
41426;SDS011;27171;51.812;19.514;2022-10-15T06:41:39;45.33;;;35.60;;
41426;SDS011;27171;51.812;19.514;2022-10-15T06:44:40;46.20;;;33.97;;
41426;SDS011;27171;51.812;19.514;2022-10-15T06:47:42;43.78;;;34.47;;
41426;SDS011;27171;51.812;19.514;2022-10-15T06:50:43;43.72;;;34.97;;
41426;SDS011;27171;51.812;19.514;2022-10-15T06:53:44;45.40;;;35.42;;
41426;SDS011;27171;51.812;19.514;2022-10-15T06:56:45;43.63;;;35.75;;
41426;SDS011;27171;51.812;19.514;2022-10-15T06:59:47;42.17;;;36.20;;
41426;SDS011;27171;51.812;19.514;2022-10-15T07:02:48;46.33;;;34.33;;
41426;SDS011;27171;51.812;19.514;2022-10-15T07:05:50;44.80;;;35.72;;
41426;SDS011;27171;51.812;19.514;2022-10-15T07:08:51;45.13;;;34.55;;
41426;SDS011;27171;51.812;19.514;2022-10-15T07:11:52;45.15;;;35.08;;
41426;SDS011;27171;51.812;19.514;2022-10-15T07:14:53;43.10;;;33.00;;
41426;SDS011;27171;51.812;19.514;2022-10-15T07:17:55;44.58;;;34.65;;
41426;SDS011;27171;51.812;19.514;2022-10-15T07:20:56;38.70;;;31.73;;
41426;SDS011;27171;51.812;19.514;2022-10-15T07:23:58;42.20;;;33.88;;
41426;SDS011;27171;51.812;19.514;2022-10-15T07:26:59;44.72;;;35.63;;
41426;SDS011;27171;51.812;19.514;2022-10-15T07:30:00;43.60;;;34.05;;
41426;SDS011;27171;51.812;19.514;2022-10-15T07:33:01;42.28;;;34.03;;
41426;SDS011;27171;51.812;19.514;2022-10-15T07:36:08;39.20;;;34.17;;
41426;SDS011;27171;51.812;19.514;2022-10-15T07:39:10;42.33;;;35.65;;
41426;SDS011;27171;51.812;19.514;2022-10-15T07:42:12;37.33;;;30.50;;
41426;SDS011;27171;51.812;19.514;2022-10-15T07:45:13;37.70;;;32.55;;
41426;SDS011;27171;51.812;19.514;2022-10-15T07:48:14;39.10;;;33.17;;
41426;SDS011;27171;51.812;19.514;2022-10-15T07:51:16;39.70;;;33.17;;
41426;SDS011;27171;51.812;19.514;2022-10-15T07:54:17;37.33;;;32.80;;
41426;SDS011;27171;51.812;19.514;2022-10-15T07:57:18;40.95;;;33.35;;
41426;SDS011;27171;51.812;19.514;2022-10-15T08:00:21;37.85;;;32.83;;
41426;SDS011;27171;51.812;19.514;2022-10-15T08:03:22;36.08;;;32.15;;
41426;SDS011;27171;51.812;19.514;2022-10-15T08:06:23;35.80;;;31.88;;
41426;SDS011;27171;51.812;19.514;2022-10-15T08:09:24;36.03;;;31.58;;
41426;SDS011;27171;51.812;19.514;2022-10-15T08:12:25;37.22;;;31.30;;
41426;SDS011;27171;51.812;19.514;2022-10-15T08:15:27;37.33;;;32.10;;
41426;SDS011;27171;51.812;19.514;2022-10-15T08:18:28;34.83;;;30.60;;
41426;SDS011;27171;51.812;19.514;2022-10-15T08:21:29;37.85;;;30.88;;
41426;SDS011;27171;51.812;19.514;2022-10-15T08:24:30;35.15;;;29.85;;
41426;SDS011;27171;51.812;19.514;2022-10-15T08:27:31;34.88;;;28.88;;
41426;SDS011;27171;51.812;19.514;2022-10-15T08:30:37;34.05;;;30.40;;
41426;SDS011;27171;51.812;19.514;2022-10-15T08:33:44;34.67;;;30.88;;
41426;SDS011;27171;51.812;19.514;2022-10-15T08:36:45;33.75;;;28.88;;
41426;SDS011;27171;51.812;19.514;2022-10-15T08:39:46;31.67;;;27.35;;
41426;SDS011;27171;51.812;19.514;2022-10-15T08:42:47;31.55;;;28.05;;
41426;SDS011;27171;51.812;19.514;2022-10-15T08:45:48;33.40;;;28.00;;
41426;SDS011;27171;51.812;19.514;2022-10-15T08:48:55;31.98;;;28.00;;
41426;SDS011;27171;51.812;19.514;2022-10-15T08:52:05;31.67;;;26.63;;
41426;SDS011;27171;51.812;19.514;2022-10-15T08:55:15;28.60;;;24.98;;
41426;SDS011;27171;51.812;19.514;2022-10-15T09:01:24;29.95;;;25.13;;
41426;SDS011;27171;51.812;19.514;2022-10-15T09:04:45;29.13;;;26.02;;
41426;SDS011;27171;51.812;19.514;2022-10-15T09:14:31;25.23;;;22.52;;
41426;SDS011;27171;51.812;19.514;2022-10-15T09:17:38;27.55;;;23.42;;
41426;SDS011;27171;51.812;19.514;2022-10-15T09:20:41;25.17;;;21.92;;
41426;SDS011;27171;51.812;19.514;2022-10-15T09:23:43;26.23;;;23.35;;
41426;SDS011;27171;51.812;19.514;2022-10-15T09:26:53;23.75;;;21.38;;
41426;SDS011;27171;51.812;19.514;2022-10-15T09:30:04;25.40;;;22.80;;
41426;SDS011;27171;51.812;19.514;2022-10-15T09:33:17;24.27;;;21.52;;
41426;SDS011;27171;51.812;19.514;2022-10-15T09:42:56;25.25;;;20.40;;
41426;SDS011;27171;51.812;19.514;2022-10-15T09:50:34;22.27;;;20.00;;
41426;SDS011;27171;51.812;19.514;2022-10-15T09:53:48;24.73;;;19.45;;
41426;SDS011;27171;51.812;19.514;2022-10-15T09:56:53;25.08;;;20.10;;
41426;SDS011;27171;51.812;19.514;2022-10-15T09:59:57;31.40;;;21.88;;
41426;SDS011;27171;51.812;19.514;2022-10-15T10:03:06;23.35;;;19.77;;
41426;SDS011;27171;51.812;19.514;2022-10-15T10:06:15;23.75;;;18.15;;
41426;SDS011;27171;51.812;19.514;2022-10-15T10:09:20;21.27;;;18.30;;
41426;SDS011;27171;51.812;19.514;2022-10-15T10:12:35;26.50;;;19.20;;
41426;SDS011;27171;51.812;19.514;2022-10-15T10:15:40;23.02;;;18.90;;
41426;SDS011;27171;51.812;19.514;2022-10-15T10:18:42;21.55;;;18.17;;
41426;SDS011;27171;51.812;19.514;2022-10-15T10:21:44;24.35;;;18.15;;
41426;SDS011;27171;51.812;19.514;2022-10-15T10:24:46;21.33;;;18.25;;
41426;SDS011;27171;51.812;19.514;2022-10-15T10:27:47;21.80;;;18.00;;
41426;SDS011;27171;51.812;19.514;2022-10-15T10:30:51;20.40;;;18.30;;
41426;SDS011;27171;51.812;19.514;2022-10-15T10:33:59;20.20;;;17.88;;
41426;SDS011;27171;51.812;19.514;2022-10-15T10:37:02;21.15;;;18.13;;
41426;SDS011;27171;51.812;19.514;2022-10-15T10:40:04;21.10;;;18.52;;
41426;SDS011;27171;51.812;19.514;2022-10-15T10:43:27;22.13;;;17.52;;
41426;SDS011;27171;51.812;19.514;2022-10-15T10:46:30;22.95;;;20.05;;
41426;SDS011;27171;51.812;19.514;2022-10-15T10:49:32;21.95;;;17.52;;
41426;SDS011;27171;51.812;19.514;2022-10-15T10:52:41;19.85;;;17.75;;
41426;SDS011;27171;51.812;19.514;2022-10-15T10:55:45;19.23;;;17.00;;
41426;SDS011;27171;51.812;19.514;2022-10-15T10:58:48;20.05;;;18.08;;
41426;SDS011;27171;51.812;19.514;2022-10-15T11:01:55;18.85;;;16.95;;
41426;SDS011;27171;51.812;19.514;2022-10-15T11:04:56;20.13;;;16.45;;
41426;SDS011;27171;51.812;19.514;2022-10-15T11:08:59;19.88;;;17.77;;
41426;SDS011;27171;51.812;19.514;2022-10-15T11:22:22;20.65;;;17.23;;
41426;SDS011;27171;51.812;19.514;2022-10-15T11:38:29;18.08;;;16.17;;
41426;SDS011;27171;51.812;19.514;2022-10-15T11:41:55;17.10;;;15.40;;
41426;SDS011;27171;51.812;19.514;2022-10-15T11:48:33;19.83;;;15.75;;
41426;SDS011;27171;51.812;19.514;2022-10-15T12:01:51;19.30;;;15.82;;
41426;SDS011;27171;51.812;19.514;2022-10-15T12:08:08;16.48;;;14.95;;
41426;SDS011;27171;51.812;19.514;2022-10-15T12:14:47;16.48;;;13.55;;
41426;SDS011;27171;51.812;19.514;2022-10-15T12:18:00;15.30;;;13.75;;
41426;SDS011;27171;51.812;19.514;2022-10-15T12:21:36;14.67;;;13.23;;
41426;SDS011;27171;51.812;19.514;2022-10-15T12:27:39;15.93;;;14.23;;
41426;SDS011;27171;51.812;19.514;2022-10-15T12:30:41;15.02;;;13.45;;
41426;SDS011;27171;51.812;19.514;2022-10-15T12:33:53;14.85;;;12.68;;
41426;SDS011;27171;51.812;19.514;2022-10-15T12:36:59;15.70;;;12.90;;
41426;SDS011;27171;51.812;19.514;2022-10-15T12:40:21;14.20;;;12.68;;
41426;SDS011;27171;51.812;19.514;2022-10-15T12:43:28;13.90;;;12.45;;
41426;SDS011;27171;51.812;19.514;2022-10-15T12:46:37;14.30;;;12.93;;
41426;SDS011;27171;51.812;19.514;2022-10-15T12:59:27;13.77;;;12.27;;
41426;SDS011;27171;51.812;19.514;2022-10-15T13:02:42;15.00;;;13.32;;
41426;SDS011;27171;51.812;19.514;2022-10-15T13:05:50;15.65;;;14.10;;
41426;SDS011;27171;51.812;19.514;2022-10-15T13:12:15;17.65;;;14.70;;
41426;SDS011;27171;51.812;19.514;2022-10-15T13:15:23;15.15;;;13.57;;
41426;SDS011;27171;51.812;19.514;2022-10-15T13:18:28;13.65;;;12.18;;
41426;SDS011;27171;51.812;19.514;2022-10-15T13:24:48;15.52;;;13.80;;
41426;SDS011;27171;51.812;19.514;2022-10-15T13:27:50;16.52;;;14.80;;
41426;SDS011;27171;51.812;19.514;2022-10-15T13:30:51;17.77;;;14.80;;
41426;SDS011;27171;51.812;19.514;2022-10-15T13:33:53;14.88;;;13.38;;
41426;SDS011;27171;51.812;19.514;2022-10-15T13:36:58;16.45;;;13.48;;
41426;SDS011;27171;51.812;19.514;2022-10-15T13:40:02;16.40;;;14.20;;
41426;SDS011;27171;51.812;19.514;2022-10-15T13:43:12;15.43;;;13.85;;
41426;SDS011;27171;51.812;19.514;2022-10-15T13:46:18;15.25;;;13.75;;
41426;SDS011;27171;51.812;19.514;2022-10-15T13:49:19;15.48;;;13.88;;
41426;SDS011;27171;51.812;19.514;2022-10-15T13:52:20;17.25;;;15.30;;
41426;SDS011;27171;51.812;19.514;2022-10-15T13:55:25;16.15;;;14.55;;
41426;SDS011;27171;51.812;19.514;2022-10-15T13:58:30;15.15;;;12.60;;
41426;SDS011;27171;51.812;19.514;2022-10-15T14:01:33;16.50;;;14.48;;
41426;SDS011;27171;51.812;19.514;2022-10-15T14:04:35;14.15;;;12.52;;
41426;SDS011;27171;51.812;19.514;2022-10-15T14:07:36;15.43;;;13.90;;
41426;SDS011;27171;51.812;19.514;2022-10-15T14:10:37;15.82;;;14.23;;
41426;SDS011;27171;51.812;19.514;2022-10-15T14:13:48;17.17;;;14.25;;
41426;SDS011;27171;51.812;19.514;2022-10-15T14:16:51;16.52;;;14.32;;
41426;SDS011;27171;51.812;19.514;2022-10-15T14:19:55;16.38;;;14.70;;
41426;SDS011;27171;51.812;19.514;2022-10-15T14:23:02;17.25;;;14.68;;
41426;SDS011;27171;51.812;19.514;2022-10-15T14:26:03;16.92;;;15.13;;
41426;SDS011;27171;51.812;19.514;2022-10-15T14:29:05;16.88;;;14.65;;
41426;SDS011;27171;51.812;19.514;2022-10-15T14:32:20;16.33;;;14.68;;
41426;SDS011;27171;51.812;19.514;2022-10-15T14:35:35;17.80;;;16.00;;
41426;SDS011;27171;51.812;19.514;2022-10-15T14:38:37;15.95;;;14.25;;
41426;SDS011;27171;51.812;19.514;2022-10-15T14:41:38;15.15;;;13.48;;
41426;SDS011;27171;51.812;19.514;2022-10-15T14:44:58;14.20;;;12.73;;
41426;SDS011;27171;51.812;19.514;2022-10-15T14:48:16;15.40;;;12.02;;
41426;SDS011;27171;51.812;19.514;2022-10-15T14:51:22;13.85;;;12.45;;
41426;SDS011;27171;51.812;19.514;2022-10-15T14:54:26;12.38;;;10.80;;
41426;SDS011;27171;51.812;19.514;2022-10-15T14:57:42;12.25;;;10.98;;
41426;SDS011;27171;51.812;19.514;2022-10-15T15:00:45;12.40;;;11.20;;
41426;SDS011;27171;51.812;19.514;2022-10-15T15:04:01;14.18;;;12.13;;
41426;SDS011;27171;51.812;19.514;2022-10-15T15:07:05;19.98;;;14.35;;
41426;SDS011;27171;51.812;19.514;2022-10-15T15:10:17;19.73;;;13.57;;
41426;SDS011;27171;51.812;19.514;2022-10-15T15:13:20;14.13;;;12.65;;
41426;SDS011;27171;51.812;19.514;2022-10-15T15:16:23;14.40;;;12.90;;
41426;SDS011;27171;51.812;19.514;2022-10-15T15:19:24;14.52;;;12.98;;
41426;SDS011;27171;51.812;19.514;2022-10-15T15:22:29;14.45;;;12.85;;
41426;SDS011;27171;51.812;19.514;2022-10-15T15:25:32;15.13;;;13.30;;
41426;SDS011;27171;51.812;19.514;2022-10-15T15:28:34;13.75;;;12.32;;
41426;SDS011;27171;51.812;19.514;2022-10-15T15:31:36;14.63;;;13.13;;
41426;SDS011;27171;51.812;19.514;2022-10-15T15:34:37;15.77;;;14.27;;
41426;SDS011;27171;51.812;19.514;2022-10-15T15:37:38;18.67;;;13.10;;
41426;SDS011;27171;51.812;19.514;2022-10-15T15:40:40;14.65;;;13.00;;
41426;SDS011;27171;51.812;19.514;2022-10-15T15:43:42;15.10;;;13.50;;
41426;SDS011;27171;51.812;19.514;2022-10-15T15:46:44;17.42;;;13.65;;
41426;SDS011;27171;51.812;19.514;2022-10-15T15:49:45;14.60;;;13.00;;
41426;SDS011;27171;51.812;19.514;2022-10-15T15:52:46;12.65;;;11.35;;
41426;SDS011;27171;51.812;19.514;2022-10-15T15:55:48;13.40;;;11.05;;
41426;SDS011;27171;51.812;19.514;2022-10-15T15:58:49;12.52;;;10.75;;
41426;SDS011;27171;51.812;19.514;2022-10-15T16:01:51;12.88;;;11.32;;
41426;SDS011;27171;51.812;19.514;2022-10-15T16:04:52;12.27;;;10.88;;
41426;SDS011;27171;51.812;19.514;2022-10-15T16:07:54;11.80;;;10.55;;
41426;SDS011;27171;51.812;19.514;2022-10-15T16:10:56;13.60;;;11.30;;
41426;SDS011;27171;51.812;19.514;2022-10-15T16:14:01;13.90;;;10.85;;
41426;SDS011;27171;51.812;19.514;2022-10-15T16:17:02;14.80;;;10.85;;
41426;SDS011;27171;51.812;19.514;2022-10-15T16:20:04;12.32;;;10.40;;
41426;SDS011;27171;51.812;19.514;2022-10-15T16:23:06;11.52;;;10.40;;
41426;SDS011;27171;51.812;19.514;2022-10-15T16:26:07;13.32;;;10.85;;
41426;SDS011;27171;51.812;19.514;2022-10-15T16:29:09;12.13;;;10.88;;
41426;SDS011;27171;51.812;19.514;2022-10-15T16:32:10;12.93;;;11.32;;
41426;SDS011;27171;51.812;19.514;2022-10-15T16:35:11;13.07;;;11.18;;
41426;SDS011;27171;51.812;19.514;2022-10-15T16:38:13;14.75;;;11.25;;
41426;SDS011;27171;51.812;19.514;2022-10-15T16:41:14;12.13;;;10.65;;
41426;SDS011;27171;51.812;19.514;2022-10-15T16:44:16;11.63;;;10.45;;
41426;SDS011;27171;51.812;19.514;2022-10-15T16:47:17;11.52;;;10.50;;
41426;SDS011;27171;51.812;19.514;2022-10-15T16:50:19;13.57;;;11.90;;
41426;SDS011;27171;51.812;19.514;2022-10-15T16:53:20;14.05;;;12.20;;
41426;SDS011;27171;51.812;19.514;2022-10-15T16:56:25;12.93;;;11.52;;
41426;SDS011;27171;51.812;19.514;2022-10-15T16:59:28;12.50;;;10.65;;
41426;SDS011;27171;51.812;19.514;2022-10-15T17:02:29;13.15;;;11.07;;
41426;SDS011;27171;51.812;19.514;2022-10-15T17:05:31;12.18;;;10.57;;
41426;SDS011;27171;51.812;19.514;2022-10-15T17:08:36;12.07;;;10.85;;
41426;SDS011;27171;51.812;19.514;2022-10-15T17:11:43;10.57;;;9.48;;
41426;SDS011;27171;51.812;19.514;2022-10-15T17:14:48;14.23;;;11.75;;
41426;SDS011;27171;51.812;19.514;2022-10-15T17:17:50;13.27;;;10.68;;
41426;SDS011;27171;51.812;19.514;2022-10-15T17:20:51;14.68;;;11.45;;
41426;SDS011;27171;51.812;19.514;2022-10-15T17:23:53;13.55;;;12.15;;
41426;SDS011;27171;51.812;19.514;2022-10-15T17:26:56;14.25;;;12.77;;
41426;SDS011;27171;51.812;19.514;2022-10-15T17:29:58;15.10;;;12.95;;
41426;SDS011;27171;51.812;19.514;2022-10-15T17:32:59;14.77;;;12.15;;
41426;SDS011;27171;51.812;19.514;2022-10-15T17:36:02;12.23;;;10.93;;
41426;SDS011;27171;51.812;19.514;2022-10-15T17:39:08;13.07;;;11.77;;
41426;SDS011;27171;51.812;19.514;2022-10-15T17:42:10;14.25;;;12.20;;
41426;SDS011;27171;51.812;19.514;2022-10-15T17:45:11;15.77;;;12.32;;
41426;SDS011;27171;51.812;19.514;2022-10-15T17:48:12;12.18;;;10.95;;
41426;SDS011;27171;51.812;19.514;2022-10-15T17:51:15;15.48;;;13.13;;
41426;SDS011;27171;51.812;19.514;2022-10-15T17:54:18;12.25;;;10.98;;
41426;SDS011;27171;51.812;19.514;2022-10-15T17:57:20;15.63;;;12.15;;
41426;SDS011;27171;51.812;19.514;2022-10-15T18:00:22;11.93;;;10.45;;
41426;SDS011;27171;51.812;19.514;2022-10-15T18:03:23;13.07;;;11.13;;
41426;SDS011;27171;51.812;19.514;2022-10-15T18:06:25;14.63;;;12.38;;
41426;SDS011;27171;51.812;19.514;2022-10-15T18:09:27;14.75;;;12.35;;
41426;SDS011;27171;51.812;19.514;2022-10-15T18:12:31;13.82;;;12.25;;
41426;SDS011;27171;51.812;19.514;2022-10-15T18:15:32;20.42;;;14.55;;
41426;SDS011;27171;51.812;19.514;2022-10-15T18:18:36;18.35;;;15.45;;
41426;SDS011;27171;51.812;19.514;2022-10-15T18:21:37;21.20;;;16.80;;
41426;SDS011;27171;51.812;19.514;2022-10-15T18:24:39;17.83;;;14.68;;
41426;SDS011;27171;51.812;19.514;2022-10-15T18:27:40;17.38;;;14.57;;
41426;SDS011;27171;51.812;19.514;2022-10-15T18:30:43;14.43;;;12.55;;
41426;SDS011;27171;51.812;19.514;2022-10-15T18:33:46;14.60;;;13.18;;
41426;SDS011;27171;51.812;19.514;2022-10-15T18:36:49;16.15;;;13.05;;
41426;SDS011;27171;51.812;19.514;2022-10-15T18:39:50;15.60;;;13.68;;
41426;SDS011;27171;51.812;19.514;2022-10-15T18:42:51;18.27;;;14.05;;
41426;SDS011;27171;51.812;19.514;2022-10-15T18:45:56;15.45;;;13.85;;
41426;SDS011;27171;51.812;19.514;2022-10-15T18:48:57;16.10;;;14.40;;
41426;SDS011;27171;51.812;19.514;2022-10-15T18:51:59;17.77;;;14.35;;
41426;SDS011;27171;51.812;19.514;2022-10-15T18:55:02;16.33;;;14.52;;
41426;SDS011;27171;51.812;19.514;2022-10-15T18:58:03;14.73;;;13.23;;
41426;SDS011;27171;51.812;19.514;2022-10-15T19:04:39;16.67;;;13.55;;
41426;SDS011;27171;51.812;19.514;2022-10-15T19:07:40;16.63;;;14.82;;
41426;SDS011;27171;51.812;19.514;2022-10-15T19:10:41;15.75;;;13.85;;
41426;SDS011;27171;51.812;19.514;2022-10-15T19:13:43;14.15;;;12.32;;
41426;SDS011;27171;51.812;19.514;2022-10-15T19:16:45;13.35;;;11.90;;
41426;SDS011;27171;51.812;19.514;2022-10-15T19:24:24;13.07;;;11.27;;
41426;SDS011;27171;51.812;19.514;2022-10-15T19:27:25;13.95;;;11.57;;
41426;SDS011;27171;51.812;19.514;2022-10-15T19:30:29;12.43;;;11.23;;
41426;SDS011;27171;51.812;19.514;2022-10-15T19:33:31;13.65;;;11.50;;
41426;SDS011;27171;51.812;19.514;2022-10-15T19:36:42;12.65;;;11.43;;
41426;SDS011;27171;51.812;19.514;2022-10-15T19:39:47;13.05;;;11.75;;
41426;SDS011;27171;51.812;19.514;2022-10-15T19:42:49;12.45;;;11.18;;